Millenium Air

Millenium Air Since 1998



 METAR AND TAF INFORMATION
METAR FOR EPSY
ADDS - METARS form results

(0215 UTC 19 July 2019)
Data provider http://aviationweather.gov/metar/data/
 
Forecast for: EPSY (SZYMANY , PL)
Text: TAF EPSY 182030Z 1821/1906 VRB02KT CAVOK
Forecast period: 2100 UTC 18 July 2019 to 0600 UTC 19 July 2019
Forecast type: FROM: standard forecast or significant change
Winds: variable direction winds at 2 MPH (2 knots; 1.0 m/s)
Visibility: 6 or more miles 10+ km)
Ceiling: unknown
Clouds: missing
Weather: NSW  (no significant weather)
Text: PROB30
Forecast period: 0100 to 0500 UTC 19 July 2019
Forecast type: TEMPORARY: The following changes expected for less than half the time period
Visibility: 0.50 miles (0.80 km)
Ceiling: unknown
Clouds: missing
Weather: FG  (fog)

 AIRPORT MAP

 RUNWAY INFORMATION
Runway 02 Runway length 6562 ft Runway width 197 ft
Runway elevation 438 ft Runway displaced threshold 0 ft Runway heading 19
Runway 20 Runway length 6562 ft Runway width 197 ft
Runway elevation 462 ft Runway displaced threshold 0 ft Runway heading 199

 AIRPORT FREQUENCIES
Type TWR Name SZCZYTNO I Frequency 118.025 MHZ

 AIRPORT NEAR NAVIGATION AIDS
Type NDB Name Szczytno Frequency 288 KHZ